sensor_id;sensor_type;location;lat;lon;timestamp;P1;durP1;ratioP1;P2;durP2;ratioP2
75984;SDS011;65033;44.660;37.758;2022-12-20T00:00:31;4.00;;;3.45;;
75984;SDS011;65033;44.660;37.758;2022-12-20T00:01:35;3.97;;;2.83;;
75984;SDS011;65033;44.660;37.758;2022-12-20T00:02:38;4.18;;;3.40;;
75984;SDS011;65033;44.660;37.758;2022-12-20T00:03:42;4.32;;;3.80;;
75984;SDS011;65033;44.660;37.758;2022-12-20T00:04:46;3.67;;;3.25;;
75984;SDS011;65033;44.660;37.758;2022-12-20T00:05:49;4.18;;;3.58;;
75984;SDS011;65033;44.660;37.758;2022-12-20T00:06:54;3.67;;;3.38;;
75984;SDS011;65033;44.660;37.758;2022-12-20T00:07:57;4.05;;;3.65;;
75984;SDS011;65033;44.660;37.758;2022-12-20T00:09:01;4.18;;;3.58;;
75984;SDS011;65033;44.660;37.758;2022-12-20T00:10:06;4.07;;;3.67;;
75984;SDS011;65033;44.660;37.758;2022-12-20T00:11:09;4.13;;;3.72;;
75984;SDS011;65033;44.660;37.758;2022-12-20T00:12:13;4.13;;;3.50;;
75984;SDS011;65033;44.660;37.758;2022-12-20T00:13:17;3.53;;;3.22;;
75984;SDS011;65033;44.660;37.758;2022-12-20T00:14:20;4.20;;;3.80;;
75984;SDS011;65033;44.660;37.758;2022-12-20T00:15:23;4.43;;;3.30;;
75984;SDS011;65033;44.660;37.758;2022-12-20T00:16:27;4.03;;;3.63;;
75984;SDS011;65033;44.660;37.758;2022-12-20T00:17:31;3.70;;;3.38;;
75984;SDS011;65033;44.660;37.758;2022-12-20T00:18:34;3.83;;;3.22;;
75984;SDS011;65033;44.660;37.758;2022-12-20T00:19:38;3.47;;;3.17;;
75984;SDS011;65033;44.660;37.758;2022-12-20T00:20:42;3.65;;;3.35;;
75984;SDS011;65033;44.660;37.758;2022-12-20T00:21:45;3.60;;;3.30;;
75984;SDS011;65033;44.660;37.758;2022-12-20T00:22:50;4.05;;;3.55;;
75984;SDS011;65033;44.660;37.758;2022-12-20T00:23:53;3.55;;;3.25;;
75984;SDS011;65033;44.660;37.758;2022-12-20T00:24:56;3.88;;;3.47;;
75984;SDS011;65033;44.660;37.758;2022-12-20T00:26:00;4.18;;;3.53;;
75984;SDS011;65033;44.660;37.758;2022-12-20T00:27:05;3.67;;;3.38;;
75984;SDS011;65033;44.660;37.758;2022-12-20T00:28:08;3.45;;;3.15;;
75984;SDS011;65033;44.660;37.758;2022-12-20T00:29:11;4.10;;;3.28;;
75984;SDS011;65033;44.660;37.758;2022-12-20T00:30:15;3.45;;;3.15;;
75984;SDS011;65033;44.660;37.758;2022-12-20T00:31:20;3.60;;;3.22;;
75984;SDS011;65033;44.660;37.758;2022-12-20T00:32:24;3.83;;;3.35;;
75984;SDS011;65033;44.660;37.758;2022-12-20T00:33:28;4.20;;;3.80;;
75984;SDS011;65033;44.660;37.758;2022-12-20T00:34:32;3.45;;;3.15;;
75984;SDS011;65033;44.660;37.758;2022-12-20T00:35:40;4.00;;;3.60;;
75984;SDS011;65033;44.660;37.758;2022-12-20T00:36:44;3.53;;;3.22;;
75984;SDS011;65033;44.660;37.758;2022-12-20T00:37:47;3.65;;;3.35;;
75984;SDS011;65033;44.660;37.758;2022-12-20T00:38:52;3.85;;;3.55;;
75984;SDS011;65033;44.660;37.758;2022-12-20T00:39:56;3.75;;;3.22;;
75984;SDS011;65033;44.660;37.758;2022-12-20T00:41:00;3.85;;;3.28;;
75984;SDS011;65033;44.660;37.758;2022-12-20T00:42:04;3.53;;;3.22;;
75984;SDS011;65033;44.660;37.758;2022-12-20T00:43:08;3.83;;;3.45;;
75984;SDS011;65033;44.660;37.758;2022-12-20T00:44:12;3.95;;;3.38;;
75984;SDS011;65033;44.660;37.758;2022-12-20T00:45:15;3.55;;;3.25;;
75984;SDS011;65033;44.660;37.758;2022-12-20T00:46:19;4.00;;;3.45;;
75984;SDS011;65033;44.660;37.758;2022-12-20T00:47:26;4.72;;;3.33;;
75984;SDS011;65033;44.660;37.758;2022-12-20T00:48:29;3.65;;;3.30;;
75984;SDS011;65033;44.660;37.758;2022-12-20T00:49:34;3.53;;;3.22;;
75984;SDS011;65033;44.660;37.758;2022-12-20T00:50:37;3.53;;;3.22;;
75984;SDS011;65033;44.660;37.758;2022-12-20T00:51:40;4.07;;;3.42;;
75984;SDS011;65033;44.660;37.758;2022-12-20T00:52:44;3.40;;;3.10;;
75984;SDS011;65033;44.660;37.758;2022-12-20T00:53:48;3.65;;;3.35;;
75984;SDS011;65033;44.660;37.758;2022-12-20T00:54:52;3.83;;;3.33;;
75984;SDS011;65033;44.660;37.758;2022-12-20T00:55:55;4.00;;;3.58;;
75984;SDS011;65033;44.660;37.758;2022-12-20T00:56:58;3.40;;;3.05;;
75984;SDS011;65033;44.660;37.758;2022-12-20T00:58:01;3.78;;;3.40;;
75984;SDS011;65033;44.660;37.758;2022-12-20T00:59:05;3.83;;;3.53;;
75984;SDS011;65033;44.660;37.758;2022-12-20T01:00:08;3.50;;;3.20;;
75984;SDS011;65033;44.660;37.758;2022-12-20T01:01:14;3.55;;;3.25;;
75984;SDS011;65033;44.660;37.758;2022-12-20T01:02:22;3.72;;;3.42;;
75984;SDS011;65033;44.660;37.758;2022-12-20T01:03:27;4.15;;;3.75;;
75984;SDS011;65033;44.660;37.758;2022-12-20T01:04:30;3.28;;;2.97;;
75984;SDS011;65033;44.660;37.758;2022-12-20T01:05:33;4.20;;;3.60;;
75984;SDS011;65033;44.660;37.758;2022-12-20T01:06:36;3.83;;;3.42;;
75984;SDS011;65033;44.660;37.758;2022-12-20T01:07:40;3.35;;;3.05;;
75984;SDS011;65033;44.660;37.758;2022-12-20T01:08:43;3.92;;;3.35;;
75984;SDS011;65033;44.660;37.758;2022-12-20T01:09:48;4.00;;;3.60;;
75984;SDS011;65033;44.660;37.758;2022-12-20T01:10:57;3.60;;;3.30;;
75984;SDS011;65033;44.660;37.758;2022-12-20T01:12:01;3.42;;;3.13;;
75984;SDS011;65033;44.660;37.758;2022-12-20T01:13:04;4.88;;;3.10;;
75984;SDS011;65033;44.660;37.758;2022-12-20T01:14:10;3.42;;;3.08;;
75984;SDS011;65033;44.660;37.758;2022-12-20T01:15:15;5.30;;;3.38;;
75984;SDS011;65033;44.660;37.758;2022-12-20T01:16:19;3.72;;;3.42;;
75984;SDS011;65033;44.660;37.758;2022-12-20T01:17:24;3.88;;;3.47;;
75984;SDS011;65033;44.660;37.758;2022-12-20T01:18:27;3.65;;;3.25;;
75984;SDS011;65033;44.660;37.758;2022-12-20T01:19:30;3.97;;;3.60;;
75984;SDS011;65033;44.660;37.758;2022-12-20T01:20:34;3.50;;;3.20;;
75984;SDS011;65033;44.660;37.758;2022-12-20T01:21:37;3.72;;;3.42;;
75984;SDS011;65033;44.660;37.758;2022-12-20T01:22:45;3.65;;;3.35;;
75984;SDS011;65033;44.660;37.758;2022-12-20T01:23:49;3.60;;;3.30;;
75984;SDS011;65033;44.660;37.758;2022-12-20T01:24:54;3.35;;;3.05;;
75984;SDS011;65033;44.660;37.758;2022-12-20T01:25:57;3.45;;;3.15;;
75984;SDS011;65033;44.660;37.758;2022-12-20T01:27:01;3.35;;;3.05;;
75984;SDS011;65033;44.660;37.758;2022-12-20T01:28:04;3.53;;;3.22;;
75984;SDS011;65033;44.660;37.758;2022-12-20T01:29:08;3.38;;;3.08;;
75984;SDS011;65033;44.660;37.758;2022-12-20T01:30:12;3.63;;;3.33;;
75984;SDS011;65033;44.660;37.758;2022-12-20T01:31:17;3.75;;;3.45;;
75984;SDS011;65033;44.660;37.758;2022-12-20T01:32:20;3.53;;;2.92;;
75984;SDS011;65033;44.660;37.758;2022-12-20T01:33:24;4.50;;;4.00;;
75984;SDS011;65033;44.660;37.758;2022-12-20T01:34:27;3.30;;;3.00;;
75984;SDS011;65033;44.660;37.758;2022-12-20T01:35:30;4.28;;;3.88;;
75984;SDS011;65033;44.660;37.758;2022-12-20T01:36:34;3.58;;;3.28;;
75984;SDS011;65033;44.660;37.758;2022-12-20T01:37:39;3.38;;;3.00;;
75984;SDS011;65033;44.660;37.758;2022-12-20T01:38:42;3.60;;;3.30;;
75984;SDS011;65033;44.660;37.758;2022-12-20T01:39:46;3.50;;;3.20;;
75984;SDS011;65033;44.660;37.758;2022-12-20T01:40:51;4.10;;;3.33;;
75984;SDS011;65033;44.660;37.758;2022-12-20T01:41:55;3.45;;;2.90;;
75984;SDS011;65033;44.660;37.758;2022-12-20T01:42:58;3.88;;;3.58;;
75984;SDS011;65033;44.660;37.758;2022-12-20T01:44:03;3.40;;;3.10;;
75984;SDS011;65033;44.660;37.758;2022-12-20T01:45:10;3.78;;;3.38;;
75984;SDS011;65033;44.660;37.758;2022-12-20T01:46:23;3.70;;;3.40;;
75984;SDS011;65033;44.660;37.758;2022-12-20T01:47:29;3.55;;;3.25;;
75984;SDS011;65033;44.660;37.758;2022-12-20T01:48:35;3.55;;;3.25;;
75984;SDS011;65033;44.660;37.758;2022-12-20T01:49:39;3.78;;;3.38;;
75984;SDS011;65033;44.660;37.758;2022-12-20T01:50:46;3.60;;;3.20;;
75984;SDS011;65033;44.660;37.758;2022-12-20T01:51:52;3.25;;;2.95;;
75984;SDS011;65033;44.660;37.758;2022-12-20T01:52:58;3.45;;;3.13;;
75984;SDS011;65033;44.660;37.758;2022-12-20T01:54:04;3.65;;;3.03;;
75984;SDS011;65033;44.660;37.758;2022-12-20T01:55:14;3.60;;;3.00;;
75984;SDS011;65033;44.660;37.758;2022-12-20T01:56:22;3.10;;;2.78;;
75984;SDS011;65033;44.660;37.758;2022-12-20T01:57:28;4.13;;;3.20;;
75984;SDS011;65033;44.660;37.758;2022-12-20T01:58:36;3.30;;;3.00;;
75984;SDS011;65033;44.660;37.758;2022-12-20T01:59:41;4.15;;;3.33;;
75984;SDS011;65033;44.660;37.758;2022-12-20T02:00:48;3.40;;;3.03;;
75984;SDS011;65033;44.660;37.758;2022-12-20T02:01:51;3.88;;;2.92;;
75984;SDS011;65033;44.660;37.758;2022-12-20T02:02:57;3.28;;;2.97;;
75984;SDS011;65033;44.660;37.758;2022-12-20T02:04:03;3.80;;;3.03;;
75984;SDS011;65033;44.660;37.758;2022-12-20T02:05:06;3.47;;;3.03;;
75984;SDS011;65033;44.660;37.758;2022-12-20T02:06:14;3.60;;;3.30;;
75984;SDS011;65033;44.660;37.758;2022-12-20T02:07:20;4.07;;;2.72;;
75984;SDS011;65033;44.660;37.758;2022-12-20T02:08:27;3.50;;;3.20;;
75984;SDS011;65033;44.660;37.758;2022-12-20T02:09:31;3.50;;;3.20;;
75984;SDS011;65033;44.660;37.758;2022-12-20T02:10:40;4.20;;;3.25;;
75984;SDS011;65033;44.660;37.758;2022-12-20T02:12:05;3.00;;;2.70;;
75984;SDS011;65033;44.660;37.758;2022-12-20T02:13:15;3.63;;;3.33;;
75984;SDS011;65033;44.660;37.758;2022-12-20T02:14:30;3.53;;;3.22;;
75984;SDS011;65033;44.660;37.758;2022-12-20T02:15:41;3.38;;;3.08;;
75984;SDS011;65033;44.660;37.758;2022-12-20T02:16:51;3.60;;;3.00;;
75984;SDS011;65033;44.660;37.758;2022-12-20T02:18:05;3.60;;;3.30;;
75984;SDS011;65033;44.660;37.758;2022-12-20T02:19:23;3.72;;;2.90;;
75984;SDS011;65033;44.660;37.758;2022-12-20T02:20:45;3.83;;;3.40;;
75984;SDS011;65033;44.660;37.758;2022-12-20T02:21:58;3.70;;;2.80;;
75984;SDS011;65033;44.660;37.758;2022-12-20T02:28:16;3.03;;;2.72;;
75984;SDS011;65033;44.660;37.758;2022-12-20T02:29:35;3.30;;;3.00;;
75984;SDS011;65033;44.660;37.758;2022-12-20T02:30:42;3.22;;;2.92;;
75984;SDS011;65033;44.660;37.758;2022-12-20T02:31:49;3.25;;;2.90;;
75984;SDS011;65033;44.660;37.758;2022-12-20T02:33:01;3.30;;;3.00;;
75984;SDS011;65033;44.660;37.758;2022-12-20T02:34:06;3.50;;;3.20;;
75984;SDS011;65033;44.660;37.758;2022-12-20T02:35:12;3.40;;;3.10;;
75984;SDS011;65033;44.660;37.758;2022-12-20T02:36:19;3.35;;;2.95;;
75984;SDS011;65033;44.660;37.758;2022-12-20T02:37:24;3.45;;;3.15;;
75984;SDS011;65033;44.660;37.758;2022-12-20T02:38:28;3.20;;;2.90;;
75984;SDS011;65033;44.660;37.758;2022-12-20T02:39:34;3.28;;;2.97;;
75984;SDS011;65033;44.660;37.758;2022-12-20T02:40:40;3.25;;;2.95;;
75984;SDS011;65033;44.660;37.758;2022-12-20T02:41:46;3.97;;;3.17;;
75984;SDS011;65033;44.660;37.758;2022-12-20T02:42:54;3.05;;;2.80;;
75984;SDS011;65033;44.660;37.758;2022-12-20T02:44:02;4.22;;;3.10;;
75984;SDS011;65033;44.660;37.758;2022-12-20T02:45:29;3.38;;;3.08;;
75984;SDS011;65033;44.660;37.758;2022-12-20T02:46:37;3.22;;;2.92;;
75984;SDS011;65033;44.660;37.758;2022-12-20T02:47:45;3.28;;;2.97;;
75984;SDS011;65033;44.660;37.758;2022-12-20T02:49:55;3.90;;;3.13;;
75984;SDS011;65033;44.660;37.758;2022-12-20T02:50:59;3.58;;;3.28;;
75984;SDS011;65033;44.660;37.758;2022-12-20T02:52:05;3.40;;;3.10;;
75984;SDS011;65033;44.660;37.758;2022-12-20T02:53:10;6.22;;;3.20;;
75984;SDS011;65033;44.660;37.758;2022-12-20T02:54:16;4.13;;;3.38;;
75984;SDS011;65033;44.660;37.758;2022-12-20T02:55:23;3.60;;;3.10;;
75984;SDS011;65033;44.660;37.758;2022-12-20T02:56:38;3.55;;;3.20;;
75984;SDS011;65033;44.660;37.758;2022-12-20T02:57:47;3.17;;;2.88;;
75984;SDS011;65033;44.660;37.758;2022-12-20T02:58:57;3.50;;;3.20;;
75984;SDS011;65033;44.660;37.758;2022-12-20T03:00:07;4.07;;;3.38;;
75984;SDS011;65033;44.660;37.758;2022-12-20T03:01:13;3.15;;;2.95;;
75984;SDS011;65033;44.660;37.758;2022-12-20T03:02:23;3.92;;;3.25;;
75984;SDS011;65033;44.660;37.758;2022-12-20T03:03:28;4.07;;;3.67;;
75984;SDS011;65033;44.660;37.758;2022-12-20T03:04:34;4.45;;;3.65;;
75984;SDS011;65033;44.660;37.758;2022-12-20T03:05:42;3.17;;;2.88;;
75984;SDS011;65033;44.660;37.758;2022-12-20T03:06:58;3.95;;;3.30;;
75984;SDS011;65033;44.660;37.758;2022-12-20T03:08:02;4.45;;;3.30;;
75984;SDS011;65033;44.660;37.758;2022-12-20T03:09:06;3.58;;;3.28;;
75984;SDS011;65033;44.660;37.758;2022-12-20T03:10:11;4.18;;;3.50;;
75984;SDS011;65033;44.660;37.758;2022-12-20T03:11:14;4.15;;;3.42;;
75984;SDS011;65033;44.660;37.758;2022-12-20T03:12:18;3.40;;;3.10;;
75984;SDS011;65033;44.660;37.758;2022-12-20T03:13:21;3.80;;;3.50;;
75984;SDS011;65033;44.660;37.758;2022-12-20T03:14:31;4.38;;;3.97;;
75984;SDS011;65033;44.660;37.758;2022-12-20T03:15:36;3.78;;;3.38;;
75984;SDS011;65033;44.660;37.758;2022-12-20T03:16:39;3.50;;;3.20;;
75984;SDS011;65033;44.660;37.758;2022-12-20T03:17:45;3.53;;;3.15;;
75984;SDS011;65033;44.660;37.758;2022-12-20T03:18:48;3.83;;;3.40;;
75984;SDS011;65033;44.660;37.758;2022-12-20T03:19:51;3.33;;;3.00;;
75984;SDS011;65033;44.660;37.758;2022-12-20T03:20:55;4.05;;;3.60;;
75984;SDS011;65033;44.660;37.758;2022-12-20T03:21:58;3.58;;;3.28;;
75984;SDS011;65033;44.660;37.758;2022-12-20T03:23:01;4.20;;;3.80;;
75984;SDS011;65033;44.660;37.758;2022-12-20T03:24:05;3.70;;;3.40;;
75984;SDS011;65033;44.660;37.758;2022-12-20T03:25:08;3.97;;;3.50;;
75984;SDS011;65033;44.660;37.758;2022-12-20T03:26:12;3.92;;;3.53;;
75984;SDS011;65033;44.660;37.758;2022-12-20T03:27:19;4.30;;;3.65;;
75984;SDS011;65033;44.660;37.758;2022-12-20T03:28:22;4.30;;;3.90;;
75984;SDS011;65033;44.660;37.758;2022-12-20T03:29:26;5.72;;;3.42;;
75984;SDS011;65033;44.660;37.758;2022-12-20T03:30:29;3.45;;;3.15;;
75984;SDS011;65033;44.660;37.758;2022-12-20T03:31:32;3.35;;;3.05;;
75984;SDS011;65033;44.660;37.758;2022-12-20T03:32:37;4.40;;;3.63;;
75984;SDS011;65033;44.660;37.758;2022-12-20T03:33:43;4.03;;;3.53;;
75984;SDS011;65033;44.660;37.758;2022-12-20T03:34:46;3.55;;;3.22;;
75984;SDS011;65033;44.660;37.758;2022-12-20T03:35:54;4.15;;;3.08;;
75984;SDS011;65033;44.660;37.758;2022-12-20T03:36:58;3.67;;;3.38;;
75984;SDS011;65033;44.660;37.758;2022-12-20T03:38:01;4.65;;;4.07;;
75984;SDS011;65033;44.660;37.758;2022-12-20T03:39:05;4.50;;;3.58;;
75984;SDS011;65033;44.660;37.758;2022-12-20T03:40:12;3.90;;;3.50;;
75984;SDS011;65033;44.660;37.758;2022-12-20T03:41:17;3.65;;;3.20;;
75984;SDS011;65033;44.660;37.758;2022-12-20T03:42:20;4.10;;;3.70;;
75984;SDS011;65033;44.660;37.758;2022-12-20T03:43:24;4.35;;;3.95;;
75984;SDS011;65033;44.660;37.758;2022-12-20T03:44:27;3.95;;;3.55;;
75984;SDS011;65033;44.660;37.758;2022-12-20T03:45:30;4.15;;;3.72;;
75984;SDS011;65033;44.660;37.758;2022-12-20T03:46:34;3.60;;;3.30;;
75984;SDS011;65033;44.660;37.758;2022-12-20T03:47:38;3.63;;;3.33;;
75984;SDS011;65033;44.660;37.758;2022-12-20T03:48:43;4.03;;;3.63;;
75984;SDS011;65033;44.660;37.758;2022-12-20T03:49:47;3.63;;;3.33;;
75984;SDS011;65033;44.660;37.758;2022-12-20T03:50:50;4.00;;;3.60;;
75984;SDS011;65033;44.660;37.758;2022-12-20T03:51:53;4.18;;;3.78;;
75984;SDS011;65033;44.660;37.758;2022-12-20T03:52:57;4.18;;;3.78;;
75984;SDS011;65033;44.660;37.758;2022-12-20T03:54:00;4.85;;;3.65;;
75984;SDS011;65033;44.660;37.758;2022-12-20T03:55:22;4.07;;;3.67;;
75984;SDS011;65033;44.660;37.758;2022-12-20T03:56:25;3.95;;;3.40;;
75984;SDS011;65033;44.660;37.758;2022-12-20T03:57:29;4.10;;;3.67;;
75984;SDS011;65033;44.660;37.758;2022-12-20T03:58:33;4.05;;;3.65;;
75984;SDS011;65033;44.660;37.758;2022-12-20T03:59:37;4.10;;;3.70;;
75984;SDS011;65033;44.660;37.758;2022-12-20T04:00:43;4.68;;;3.30;;
75984;SDS011;65033;44.660;37.758;2022-12-20T04:02:06;4.18;;;3.15;;
75984;SDS011;65033;44.660;37.758;2022-12-20T04:03:10;3.95;;;3.55;;
75984;SDS011;65033;44.660;37.758;2022-12-20T04:04:15;4.38;;;3.97;;
75984;SDS011;65033;44.660;37.758;2022-12-20T04:05:19;5.13;;;4.00;;
75984;SDS011;65033;44.660;37.758;2022-12-20T04:06:22;5.57;;;4.35;;
75984;SDS011;65033;44.660;37.758;2022-12-20T04:07:26;4.88;;;4.47;;
75984;SDS011;65033;44.660;37.758;2022-12-20T04:08:30;4.85;;;4.38;;
75984;SDS011;65033;44.660;37.758;2022-12-20T04:09:33;4.38;;;3.97;;
75984;SDS011;65033;44.660;37.758;2022-12-20T04:10:45;4.85;;;4.00;;
75984;SDS011;65033;44.660;37.758;2022-12-20T04:12:09;5.65;;;4.20;;
75984;SDS011;65033;44.660;37.758;2022-12-20T04:13:13;4.25;;;3.80;;
75984;SDS011;65033;44.660;37.758;2022-12-20T04:14:17;4.95;;;4.47;;
75984;SDS011;65033;44.660;37.758;2022-12-20T04:15:20;4.97;;;4.47;;
75984;SDS011;65033;44.660;37.758;2022-12-20T04:16:24;6.63;;;4.50;;
75984;SDS011;65033;44.660;37.758;2022-12-20T04:17:29;4.47;;;4.07;;
75984;SDS011;65033;44.660;37.758;2022-12-20T04:18:33;5.45;;;4.45;;
75984;SDS011;65033;44.660;37.758;2022-12-20T04:19:39;5.55;;;4.72;;
75984;SDS011;65033;44.660;37.758;2022-12-20T04:20:43;5.20;;;4.63;;
75984;SDS011;65033;44.660;37.758;2022-12-20T04:21:54;7.35;;;5.25;;
75984;SDS011;65033;44.660;37.758;2022-12-20T04:23:10;6.18;;;4.85;;
75984;SDS011;65033;44.660;37.758;2022-12-20T04:24:13;5.80;;;5.20;;
75984;SDS011;65033;44.660;37.758;2022-12-20T04:25:32;7.80;;;5.28;;
75984;SDS011;65033;44.660;37.758;2022-12-20T04:26:35;5.85;;;4.80;;
75984;SDS011;65033;44.660;37.758;2022-12-20T04:27:39;5.13;;;4.63;;
75984;SDS011;65033;44.660;37.758;2022-12-20T04:28:42;8.35;;;5.10;;
75984;SDS011;65033;44.660;37.758;2022-12-20T04:29:46;6.07;;;5.20;;
75984;SDS011;65033;44.660;37.758;2022-12-20T04:30:52;6.45;;;4.82;;
75984;SDS011;65033;44.660;37.758;2022-12-20T04:31:59;5.60;;;4.80;;
75984;SDS011;65033;44.660;37.758;2022-12-20T04:33:02;10.73;;;5.85;;
75984;SDS011;65033;44.660;37.758;2022-12-20T04:34:06;5.90;;;5.10;;
75984;SDS011;65033;44.660;37.758;2022-12-20T04:35:11;6.90;;;5.40;;
75984;SDS011;65033;44.660;37.758;2022-12-20T04:36:16;7.60;;;5.40;;
75984;SDS011;65033;44.660;37.758;2022-12-20T04:37:20;9.98;;;5.20;;
75984;SDS011;65033;44.660;37.758;2022-12-20T04:38:28;6.03;;;5.43;;
75984;SDS011;65033;44.660;37.758;2022-12-20T04:39:32;6.85;;;5.28;;
75984;SDS011;65033;44.660;37.758;2022-12-20T04:40:55;8.98;;;5.47;;
75984;SDS011;65033;44.660;37.758;2022-12-20T04:42:00;7.38;;;5.20;;
75984;SDS011;65033;44.660;37.758;2022-12-20T04:43:04;6.95;;;5.35;;
75984;SDS011;65033;44.660;37.758;2022-12-20T04:44:07;6.22;;;4.75;;
75984;SDS011;65033;44.660;37.758;2022-12-20T04:45:11;7.32;;;5.28;;
75984;SDS011;65033;44.660;37.758;2022-12-20T04:46:15;9.20;;;5.95;;
75984;SDS011;65033;44.660;37.758;2022-12-20T04:47:19;6.90;;;5.03;;
75984;SDS011;65033;44.660;37.758;2022-12-20T04:48:23;7.78;;;5.30;;
75984;SDS011;65033;44.660;37.758;2022-12-20T04:49:50;7.22;;;5.45;;
75984;SDS011;65033;44.660;37.758;2022-12-20T04:50:55;6.88;;;5.13;;
75984;SDS011;65033;44.660;37.758;2022-12-20T04:52:00;7.93;;;4.82;;
75984;SDS011;65033;44.660;37.758;2022-12-20T04:53:23;6.68;;;5.22;;
75984;SDS011;65033;44.660;37.758;2022-12-20T04:54:45;6.82;;;5.30;;
75984;SDS011;65033;44.660;37.758;2022-12-20T04:55:56;6.45;;;5.45;;
75984;SDS011;65033;44.660;37.758;2022-12-20T04:56:59;5.60;;;5.07;;
75984;SDS011;65033;44.660;37.758;2022-12-20T04:58:03;6.32;;;5.55;;
75984;SDS011;65033;44.660;37.758;2022-12-20T04:59:10;6.13;;;4.93;;
75984;SDS011;65033;44.660;37.758;2022-12-20T05:00:17;7.00;;;5.35;;
75984;SDS011;65033;44.660;37.758;2022-12-20T05:01:28;7.28;;;5.25;;
75984;SDS011;65033;44.660;37.758;2022-12-20T05:02:32;6.82;;;5.53;;
75984;SDS011;65033;44.660;37.758;2022-12-20T05:03:40;7.22;;;5.18;;
75984;SDS011;65033;44.660;37.758;2022-12-20T05:04:44;6.15;;;5.53;;
75984;SDS011;65033;44.660;37.758;2022-12-20T05:05:47;9.65;;;8.05;;
75984;SDS011;65033;44.660;37.758;2022-12-20T05:06:52;8.93;;;7.97;;
75984;SDS011;65033;44.660;37.758;2022-12-20T05:07:55;9.82;;;8.82;;
75984;SDS011;65033;44.660;37.758;2022-12-20T05:08:59;13.32;;;9.82;;
75984;SDS011;65033;44.660;37.758;2022-12-20T05:10:03;9.20;;;7.88;;
75984;SDS011;65033;44.660;37.758;2022-12-20T05:11:07;7.90;;;7.10;;
75984;SDS011;65033;44.660;37.758;2022-12-20T05:12:10;8.38;;;7.57;;
75984;SDS011;65033;44.660;37.758;2022-12-20T05:13:14;9.45;;;8.10;;
75984;SDS011;65033;44.660;37.758;2022-12-20T05:14:19;8.45;;;7.65;;
75984;SDS011;65033;44.660;37.758;2022-12-20T05:15:22;7.93;;;7.20;;
75984;SDS011;65033;44.660;37.758;2022-12-20T05:16:26;10.55;;;8.35;;
75984;SDS011;65033;44.660;37.758;2022-12-20T05:17:30;10.20;;;8.90;;
75984;SDS011;65033;44.660;37.758;2022-12-20T05:18:33;10.43;;;9.32;;
75984;SDS011;65033;44.660;37.758;2022-12-20T05:19:40;10.55;;;8.30;;
75984;SDS011;65033;44.660;37.758;2022-12-20T05:20:43;9.60;;;8.30;;
75984;SDS011;65033;44.660;37.758;2022-12-20T05:21:47;9.30;;;8.20;;
75984;SDS011;65033;44.660;37.758;2022-12-20T05:23:12;9.50;;;8.50;;
75984;SDS011;65033;44.660;37.758;2022-12-20T05:24:44;11.40;;;9.38;;
75984;SDS011;65033;44.660;37.758;2022-12-20T05:27:22;11.05;;;9.82;;
75984;SDS011;65033;44.660;37.758;2022-12-20T05:28:26;11.13;;;8.90;;
75984;SDS011;65033;44.660;37.758;2022-12-20T05:29:29;10.27;;;9.15;;
75984;SDS011;65033;44.660;37.758;2022-12-20T05:30:32;12.43;;;8.95;;
75984;SDS011;65033;44.660;37.758;2022-12-20T05:31:36;10.15;;;9.18;;
75984;SDS011;65033;44.660;37.758;2022-12-20T05:32:40;11.52;;;9.68;;
75984;SDS011;65033;44.660;37.758;2022-12-20T05:33:43;11.45;;;9.93;;
75984;SDS011;65033;44.660;37.758;2022-12-20T05:34:47;11.55;;;10.35;;
75984;SDS011;65033;44.660;37.758;2022-12-20T05:35:51;10.55;;;9.30;;
75984;SDS011;65033;44.660;37.758;2022-12-20T05:36:55;10.60;;;9.50;;
75984;SDS011;65033;44.660;37.758;2022-12-20T05:38:02;10.68;;;9.57;;
75984;SDS011;65033;44.660;37.758;2022-12-20T05:39:07;12.13;;;10.63;;
75984;SDS011;65033;44.660;37.758;2022-12-20T05:41:19;10.32;;;9.18;;
75984;SDS011;65033;44.660;37.758;2022-12-20T05:42:25;10.55;;;9.45;;
75984;SDS011;65033;44.660;37.758;2022-12-20T05:43:28;10.65;;;9.55;;
75984;SDS011;65033;44.660;37.758;2022-12-20T05:44:32;11.68;;;10.48;;
75984;SDS011;65033;44.660;37.758;2022-12-20T05:45:35;14.98;;;12.75;;
75984;SDS011;65033;44.660;37.758;2022-12-20T05:46:45;16.70;;;14.98;;
75984;SDS011;65033;44.660;37.758;2022-12-20T05:48:56;13.02;;;11.73;;
75984;SDS011;65033;44.660;37.758;2022-12-20T05:50:00;13.98;;;12.60;;
75984;SDS011;65033;44.660;37.758;2022-12-20T05:51:09;12.75;;;10.48;;
75984;SDS011;65033;44.660;37.758;2022-12-20T05:52:31;12.65;;;11.05;;
75984;SDS011;65033;44.660;37.758;2022-12-20T05:53:34;13.35;;;12.05;;
75984;SDS011;65033;44.660;37.758;2022-12-20T05:54:41;12.20;;;10.95;;
75984;SDS011;65033;44.660;37.758;2022-12-20T05:55:48;13.40;;;11.90;;
75984;SDS011;65033;44.660;37.758;2022-12-20T05:56:54;13.85;;;11.10;;
75984;SDS011;65033;44.660;37.758;2022-12-20T05:58:05;13.43;;;12.23;;
75984;SDS011;65033;44.660;37.758;2022-12-20T05:59:21;13.82;;;12.43;;
75984;SDS011;65033;44.660;37.758;2022-12-20T06:00:25;14.25;;;12.75;;
75984;SDS011;65033;44.660;37.758;2022-12-20T06:01:28;13.15;;;11.88;;
75984;SDS011;65033;44.660;37.758;2022-12-20T06:02:34;14.40;;;12.90;;
75984;SDS011;65033;44.660;37.758;2022-12-20T06:03:39;13.30;;;11.88;;
75984;SDS011;65033;44.660;37.758;2022-12-20T06:04:51;13.77;;;12.32;;
75984;SDS011;65033;44.660;37.758;2022-12-20T06:05:56;13.20;;;11.90;;
75984;SDS011;65033;44.660;37.758;2022-12-20T06:07:03;12.68;;;11.45;;
75984;SDS011;65033;44.660;37.758;2022-12-20T06:08:07;13.73;;;12.32;;
75984;SDS011;65033;44.660;37.758;2022-12-20T06:09:11;13.18;;;11.85;;
75984;SDS011;65033;44.660;37.758;2022-12-20T06:10:20;12.75;;;11.45;;
75984;SDS011;65033;44.660;37.758;2022-12-20T06:11:29;13.57;;;12.27;;
75984;SDS011;65033;44.660;37.758;2022-12-20T06:12:37;13.57;;;12.18;;
75984;SDS011;65033;44.660;37.758;2022-12-20T06:13:41;12.80;;;11.45;;
75984;SDS011;65033;44.660;37.758;2022-12-20T06:14:44;12.85;;;11.50;;
75984;SDS011;65033;44.660;37.758;2022-12-20T06:15:47;12.98;;;11.55;;
75984;SDS011;65033;44.660;37.758;2022-12-20T06:16:52;12.05;;;10.90;;
75984;SDS011;65033;44.660;37.758;2022-12-20T06:17:56;14.20;;;12.07;;
75984;SDS011;65033;44.660;37.758;2022-12-20T06:18:59;12.45;;;11.30;;
75984;SDS011;65033;44.660;37.758;2022-12-20T06:20:03;14.98;;;13.57;;
75984;SDS011;65033;44.660;37.758;2022-12-20T06:21:07;18.90;;;16.95;;
75984;SDS011;65033;44.660;37.758;2022-12-20T06:22:10;20.08;;;18.02;;
75984;SDS011;65033;44.660;37.758;2022-12-20T06:23:17;17.83;;;16.05;;
75984;SDS011;65033;44.660;37.758;2022-12-20T06:24:30;16.83;;;15.23;;
75984;SDS011;65033;44.660;37.758;2022-12-20T06:25:35;15.32;;;13.88;;
75984;SDS011;65033;44.660;37.758;2022-12-20T06:26:41;14.93;;;13.50;;
75984;SDS011;65033;44.660;37.758;2022-12-20T06:27:47;14.88;;;13.48;;
75984;SDS011;65033;44.660;37.758;2022-12-20T06:28:50;14.90;;;13.40;;
75984;SDS011;65033;44.660;37.758;2022-12-20T06:30:00;15.07;;;13.35;;
75984;SDS011;65033;44.660;37.758;2022-12-20T06:31:12;14.82;;;13.35;;
75984;SDS011;65033;44.660;37.758;2022-12-20T06:32:18;14.80;;;13.25;;
75984;SDS011;65033;44.660;37.758;2022-12-20T06:33:23;15.07;;;13.57;;
75984;SDS011;65033;44.660;37.758;2022-12-20T06:34:27;15.95;;;14.45;;
75984;SDS011;65033;44.660;37.758;2022-12-20T06:35:30;16.02;;;14.20;;
75984;SDS011;65033;44.660;37.758;2022-12-20T06:36:34;18.35;;;16.55;;
75984;SDS011;65033;44.660;37.758;2022-12-20T06:37:37;19.90;;;18.00;;
75984;SDS011;65033;44.660;37.758;2022-12-20T06:38:41;19.92;;;17.85;;
75984;SDS011;65033;44.660;37.758;2022-12-20T06:39:45;20.20;;;18.05;;